Time;durP1;ratioP1;P1;durP2;ratioP2;P2;SDS_P1;SDS_P2;PMS_P1;PMS_P2;Temp;Humidity;BMP_temperature;BMP_pressure;BME280_temperature;BME280_humidity;BME280_pressure;Samples;Min_cycle;Max_cycle;Signal;HPM_P1;HPM_P2
2022/11/17 00:00:24;;;;;;;;;7.75;7.50;;;;;12.35;88.43;97796.16;5072890;27;46090;-69
2022/11/17 00:02:50;;;;;;;;;6.75;6.75;;;;;12.40;87.97;97790.47;5065248;27;45522;-70
2022/11/17 00:05:15;;;;;;;;;8.75;8.50;;;;;12.37;87.58;97762.56;5053486;28;45406;-69
2022/11/17 00:07:44;;;;;;;;;7.00;7.00;;;;;12.39;87.15;97771.16;5062328;28;45667;-69
2022/11/17 00:10:10;;;;;;;;;4.25;4.00;;;;;12.39;86.55;97771.16;5073314;28;46566;-68
2022/11/17 00:15:19;;;;;;;;;4.25;4.25;;;;;12.45;86.11;97776.84;5065136;28;45500;-69
2022/11/17 00:17:47;;;;;;;;;5.75;4.00;;;;;12.40;85.69;97770.19;5072331;27;45363;-69
2022/11/17 00:23:05;;;;;;;;;8.00;7.00;;;;;12.48;85.06;97773.91;5062376;27;45425;-69
2022/11/17 00:25:32;;;;;;;;;6.00;5.50;;;;;12.43;84.68;97766.44;5074020;27;45546;-69
2022/11/17 00:27:57;;;;;;;;;6.25;5.75;;;;;12.51;85.12;97786.81;5077450;27;45473;-72
2022/11/17 00:35:53;;;;;;;;;5.50;5.50;;;;;12.53;83.74;97798.91;5077745;28;45283;-69
2022/11/17 00:38:19;;;;;;;;;9.00;7.50;;;;;12.52;83.63;97788.47;5077324;27;45566;-69
2022/11/17 00:40:45;;;;;;;;;7.00;6.00;;;;;12.52;83.76;97789.31;5077125;28;46280;-68
2022/11/17 00:43:11;;;;;;;;;6.75;6.00;;;;;12.53;83.60;97784.88;5074902;27;45427;-69
2022/11/17 00:45:37;;;;;;;;;7.25;6.25;;;;;12.52;83.00;97794.59;5091687;27;45428;-69
2022/11/17 00:48:02;;;;;;;;;9.00;8.75;;;;;12.52;83.46;97799.03;5092504;27;45619;-69
2022/11/17 00:50:28;;;;;;;;;3.75;3.75;;;;;12.51;82.24;97800.84;5076485;27;46370;-69
2022/11/17 00:52:53;;;;;;;;;5.75;5.75;;;;;12.51;82.23;97805.28;5076440;27;51236;-69
2022/11/17 00:55:18;;;;;;;;;3.75;3.75;;;;;12.50;82.48;97790.44;5077083;27;45364;-69
2022/11/17 00:57:43;;;;;;;;;5.25;5.25;;;;;12.52;82.30;97796.38;5076989;27;45298;-69
2022/11/17 01:00:09;;;;;;;;;5.25;5.25;;;;;12.53;82.40;97791.00;5076419;28;45416;-68
2022/11/17 01:02:35;;;;;;;;;6.25;6.25;;;;;12.46;81.53;97767.97;5076610;27;45346;-68
2022/11/17 01:05:00;;;;;;;;;5.00;5.00;;;;;12.53;81.52;97790.13;5076781;27;45358;-68
2022/11/17 01:07:25;;;;;;;;;4.75;3.25;;;;;12.51;80.76;97779.75;5076891;27;45397;-69
2022/11/17 01:09:51;;;;;;;;;4.50;4.50;;;;;12.54;80.33;97799.72;5076333;27;45184;-69
2022/11/17 01:12:16;;;;;;;;;2.00;2.00;;;;;12.54;79.89;97778.63;5076500;27;45316;-69
2022/11/17 01:14:42;;;;;;;;;4.00;3.25;;;;;12.58;79.15;97803.72;5076554;27;45564;-70
2022/11/17 01:17:07;;;;;;;;;3.25;3.25;;;;;12.57;79.58;97799.44;5077205;27;45243;-70
2022/11/17 01:19:32;;;;;;;;;3.00;3.00;;;;;12.54;79.51;97794.44;5076764;27;46277;-70
2022/11/17 01:21:58;;;;;;;;;3.50;2.00;;;;;12.55;78.51;97799.59;5076448;27;45233;-70
2022/11/17 01:24:23;;;;;;;;;3.00;2.00;;;;;12.57;78.25;97797.63;5076357;27;45404;-69
2022/11/17 01:26:50;;;;;;;;;2.25;2.25;;;;;12.58;78.28;97803.72;5076809;27;45707;-69
2022/11/17 01:29:16;;;;;;;;;2.00;1.25;;;;;12.60;77.35;97817.59;5076456;27;45224;-69
2022/11/17 01:31:43;;;;;;;;;3.00;3.00;;;;;12.63;76.82;97825.22;5076202;27;45459;-67
2022/11/17 01:34:09;;;;;;;;;2.00;2.00;;;;;12.63;76.98;97825.22;5076462;27;45398;-69
2022/11/17 01:39:24;;;;;;;;;3.00;2.00;;;;;12.67;76.30;97841.59;5076361;28;45497;-69
2022/11/17 01:41:50;;;;;;;;;1.75;1.75;;;;;12.67;76.13;97855.59;5076647;27;45673;-68
2022/11/17 01:44:40;;;;;;;;;1.00;1.00;;;;;12.71;75.81;97861.44;5076620;27;45319;-69
2022/11/17 01:47:16;;;;;;;;;2.00;1.50;;;;;12.71;75.36;97854.34;5076488;28;45620;-68
2022/11/17 01:49:42;;;;;;;;;2.00;2.00;;;;;12.71;75.30;97858.81;5074668;28;46255;-70
2022/11/17 01:52:10;;;;;;;;;1.25;1.25;;;;;12.73;75.13;97870.03;5075645;28;45630;-68
2022/11/17 01:54:39;;;;;;;;;1.50;1.00;;;;;12.71;74.64;97859.63;5075578;27;45480;-69
2022/11/17 01:57:11;;;;;;;;;1.50;1.50;;;;;12.73;74.67;97863.97;5075733;27;45481;-68
2022/11/17 01:59:44;;;;;;;;;1.00;1.00;;;;;12.75;74.54;97872.56;5075592;27;45494;-69
2022/11/17 02:02:09;;;;;;;;;1.25;1.25;;;;;12.75;74.36;97873.38;5075645;27;45458;-69
2022/11/17 02:04:48;;;;;;;;;2.00;2.00;;;;;12.75;74.50;97883.09;5075949;27;45230;-70
2022/11/17 02:07:29;;;;;;;;;0.00;0.00;;;;;12.58;74.63;97864.38;5076198;27;45513;-69
2022/11/17 02:09:55;;;;;;;;;1.50;1.50;;;;;12.68;74.57;97873.09;5073974;28;46387;-69
2022/11/17 02:12:24;;;;;;;;;0.50;0.50;;;;;12.67;74.52;97876.72;5076499;27;45305;-69
2022/11/17 02:14:50;;;;;;;;;0.75;0.75;;;;;12.69;74.75;97874.75;5075879;27;45500;-68
2022/11/17 02:17:17;;;;;;;;;1.00;1.00;;;;;12.73;74.18;97875.31;5075689;27;45582;-68
2022/11/17 02:19:50;;;;;;;;;2.25;0.75;;;;;12.74;74.25;97899.91;5075710;27;46279;-71
2022/11/17 02:22:40;;;;;;;;;0.00;0.00;;;;;12.74;74.01;97895.44;5073954;28;46093;-70
2022/11/17 02:25:24;;;;;;;;;2.00;1.00;;;;;12.74;74.06;97897.28;5075287;27;45348;-70
2022/11/17 02:28:12;;;;;;;;;2.75;2.75;;;;;12.73;73.77;97883.22;5076048;27;45227;-69
2022/11/17 02:30:44;;;;;;;;;2.75;2.00;;;;;12.73;73.54;97887.69;5075052;27;45493;-69
2022/11/17 02:33:22;;;;;;;;;0.25;0.25;;;;;12.70;73.81;97889.59;5075841;27;45231;-69
2022/11/17 02:35:57;;;;;;;;;1.00;1.00;;;;;12.70;73.97;97892.25;5076379;28;45298;-70
2022/11/17 02:38:31;;;;;;;;;2.00;2.00;;;;;12.69;74.32;97897.69;5075886;28;45417;-69
2022/11/17 02:41:05;;;;;;;;;1.00;1.00;;;;;12.68;74.31;97909.19;5090725;27;46430;-69
2022/11/17 02:46:27;;;;;;;;;0.75;0.75;;;;;12.62;73.95;97923.78;5074926;28;45310;-68
2022/11/17 02:49:06;;;;;;;;;0.50;0.00;;;;;12.57;73.33;97902.25;5074949;27;45428;-68
2022/11/17 02:51:34;;;;;;;;;0.00;0.00;;;;;12.60;73.01;97919.63;5075046;28;45376;-69
2022/11/17 02:54:01;;;;;;;;;0.50;0.50;;;;;12.60;73.47;97917.00;5074880;27;45251;-69
2022/11/17 02:56:26;;;;;;;;;1.25;1.00;;;;;12.62;72.87;97910.59;5074666;27;45438;-69
2022/11/17 02:58:58;;;;;;;;;3.75;1.75;;;;;12.61;72.67;97924.75;5075425;27;45514;-69
2022/11/17 03:01:57;;;;;;;;;1.00;1.00;;;;;12.62;72.51;97925.59;5107715;27;47442;-69
2022/11/17 03:04:30;;;;;;;;;1.00;1.00;;;;;12.62;72.06;97936.94;5075302;28;45360;-69
2022/11/17 03:07:08;;;;;;;;;0.50;0.50;;;;;12.63;71.97;97928.06;5074854;27;45342;-69
2022/11/17 03:09:33;;;;;;;;;1.75;1.00;;;;;12.64;71.81;97939.47;5074909;27;45490;-70
2022/11/17 03:12:09;;;;;;;;;1.00;1.00;;;;;12.64;72.21;97939.47;5074650;28;45652;-69
2022/11/17 03:14:42;;;;;;;;;1.00;1.00;;;;;12.62;72.13;97958.06;5074917;27;45339;-69
2022/11/17 03:17:21;;;;;;;;;0.00;0.00;;;;;12.60;72.92;97954.72;5074853;27;45381;-68
2022/11/17 03:19:59;;;;;;;;;0.50;0.50;;;;;12.52;74.03;97970.41;5075071;27;45263;-68
2022/11/17 03:22:40;;;;;;;;;0.50;0.50;;;;;12.37;74.65;97970.81;5075021;27;46110;-69
2022/11/17 03:25:10;;;;;;;;;0.00;0.00;;;;;12.29;75.82;97964.59;5074726;27;45488;-68
2022/11/17 03:27:41;;;;;;;;;2.00;2.00;;;;;12.20;76.24;97974.13;5074551;27;45692;-68
2022/11/17 03:30:08;;;;;;;;;1.50;0.75;;;;;12.09;76.52;97994.34;5074778;27;45251;-69
2022/11/17 03:32:39;;;;;;;;;0.00;0.00;;;;;12.03;76.83;97996.69;5074233;27;46160;-70
2022/11/17 03:35:09;;;;;;;;;0.50;0.50;;;;;11.99;76.47;98004.81;5074704;27;45364;-68
2022/11/17 03:37:41;;;;;;;;;0.00;0.00;;;;;11.97;77.17;98032.28;5074766;27;45386;-69
2022/11/17 03:40:11;;;;;;;;;0.00;0.00;;;;;11.84;79.72;98030.72;5074813;28;45713;-69
2022/11/17 03:42:40;;;;;;;;;0.00;0.00;;;;;11.74;80.89;98037.75;5074717;27;45520;-69
2022/11/17 03:45:17;;;;;;;;;1.00;1.00;;;;;11.62;81.09;98025.59;5074252;27;45228;-69
2022/11/17 03:47:43;;;;;;;;;0.00;0.00;;;;;11.54;81.45;98029.72;5074865;27;45310;-69
2022/11/17 03:50:17;;;;;;;;;1.00;1.00;;;;;11.43;82.28;98035.06;5074777;28;45599;-69
2022/11/17 03:52:44;;;;;;;;;0.00;0.00;;;;;11.41;82.25;98039.63;5074131;27;45367;-69
2022/11/17 03:55:10;;;;;;;;;1.00;1.00;;;;;11.38;82.47;98048.63;5073717;28;45443;-68
2022/11/17 03:57:54;;;;;;;;;1.00;0.25;;;;;11.37;82.65;98061.91;5074028;27;45408;-70
2022/11/17 04:00:19;;;;;;;;;0.00;0.00;;;;;11.29;82.65;98061.72;5090166;27;45361;-69
2022/11/17 04:02:48;;;;;;;;;1.25;1.00;;;;;11.33;82.46;98063.13;5077715;27;46325;-69
2022/11/17 04:05:16;;;;;;;;;0.75;0.75;;;;;11.34;82.56;98085.84;5078071;28;45276;-68
2022/11/17 04:07:43;;;;;;;;;0.00;0.00;;;;;11.33;84.28;98084.19;5077880;27;45215;-68
2022/11/17 04:10:11;;;;;;;;;0.00;0.00;;;;;11.31;85.72;98088.75;5077940;27;45299;-70
2022/11/17 04:18:05;;;;;;;;;0.25;0.25;;;;;11.30;83.88;98095.81;5077323;28;45403;-69
2022/11/17 04:20:34;;;;;;;;;0.00;0.00;;;;;11.30;82.40;98087.94;5110795;27;45409;-69
2022/11/17 04:23:13;;;;;;;;;0.00;0.00;;;;;11.34;81.83;98094.59;5077759;27;45502;-69
2022/11/17 04:28:35;;;;;;;;;0.00;0.00;;;;;11.36;nan;98095.31;5077671;28;45360;-70
2022/11/17 04:31:22;;;;;;;;;0.00;0.00;;;;;11.39;79.92;98105.59;5075938;28;45486;-69
2022/11/17 04:33:53;;;;;;;;;1.00;0.00;;;;;11.41;79.66;98110.69;5077072;27;45313;-69
2022/11/17 04:36:21;;;;;;;;;0.00;0.00;;;;;11.42;79.71;98101.03;5092746;27;45250;-69
2022/11/17 04:38:50;;;;;;;;;0.00;0.00;;;;;11.36;79.39;98118.16;5077059;27;45393;-70
2022/11/17 04:44:01;;;;;;;;;0.00;0.00;;;;;11.35;79.93;98121.75;5076830;28;45395;-69
2022/11/17 04:46:29;;;;;;;;;4.00;4.00;;;;;11.36;80.30;98123.41;5075884;27;45296;-68
2022/11/17 04:48:55;;;;;;;;;0.00;0.00;;;;;11.35;80.33;98137.53;5077142;27;45424;-68
2022/11/17 04:51:22;;;;;;;;;0.00;0.00;;;;;11.36;80.80;98137.44;5077547;27;45220;-68
2022/11/17 04:53:47;;;;;;;;;0.50;0.50;;;;;11.37;80.91;98154.03;5076555;27;46053;-69
2022/11/17 04:56:13;;;;;;;;;0.00;0.00;;;;;11.37;80.89;98154.88;5091679;27;45377;-69
2022/11/17 04:58:39;;;;;;;;;0.00;0.00;;;;;11.33;81.49;98161.38;5076073;27;45414;-69
2022/11/17 05:01:14;;;;;;;;;0.75;0.75;;;;;11.24;81.07;98155.03;5076573;27;45449;-69
2022/11/17 05:03:42;;;;;;;;;0.00;0.00;;;;;11.27;81.64;98161.88;5076087;27;45416;-70
2022/11/17 05:06:10;;;;;;;;;0.00;0.00;;;;;11.26;81.34;98173.34;5075808;27;45252;-69
2022/11/17 05:08:37;;;;;;;;;0.00;0.00;;;;;11.27;80.66;98171.53;5076407;27;45230;-70
2022/11/17 05:13:49;;;;;;;;;0.00;0.00;;;;;11.25;81.29;98185.66;5075242;28;45418;-69
2022/11/17 05:18:59;;;;;;;;;0.00;0.00;;;;;11.23;80.88;98198.13;5075836;28;45347;-70
2022/11/17 05:21:24;;;;;;;;;1.00;1.00;;;;;11.19;80.73;98203.75;5075664;27;45338;-70
2022/11/17 05:23:52;;;;;;;;;0.00;0.00;;;;;11.21;80.74;98199.22;5075538;27;45436;-69
2022/11/17 05:26:19;;;;;;;;;0.00;0.00;;;;;11.22;80.55;98212.22;5091208;27;45489;-68
2022/11/17 05:28:44;;;;;;;;;1.00;1.00;;;;;11.19;81.20;98214.28;5091250;27;45280;-70
2022/11/17 05:31:10;;;;;;;;;0.00;0.00;;;;;11.14;80.82;98204.13;5075373;27;45303;-68
2022/11/17 05:33:36;;;;;;;;;0.00;0.00;;;;;11.13;81.27;98220.00;5075327;27;46189;-69
2022/11/17 05:36:02;;;;;;;;;1.00;1.00;;;;;11.04;81.60;98225.06;5075661;27;45340;-69
2022/11/17 05:38:27;;;;;;;;;0.00;0.00;;;;;10.97;82.02;98218.63;5075548;27;45331;-68
2022/11/17 05:40:53;;;;;;;;;0.00;0.00;;;;;10.92;82.20;98211.09;5075406;27;45586;-67
2022/11/17 05:43:18;;;;;;;;;0.00;0.00;;;;;10.90;81.42;98218.28;5074856;27;45388;-69
2022/11/17 05:45:44;;;;;;;;;0.00;0.00;;;;;10.82;81.88;98226.78;5075516;27;45418;-69
2022/11/17 05:48:10;;;;;;;;;1.00;1.00;;;;;10.80;82.23;98225.25;5074880;27;45354;-68
2022/11/17 05:50:35;;;;;;;;;1.00;1.00;;;;;10.81;82.04;98234.78;5075129;27;45294;-67
2022/11/17 05:53:00;;;;;;;;;0.75;0.75;;;;;10.81;81.41;98240.88;5034470;27;1149792;-69
2022/11/17 05:55:26;;;;;;;;;0.00;0.00;;;;;10.81;81.40;98235.63;5076277;27;45373;-71
2022/11/17 05:57:53;;;;;;;;;0.25;0.25;;;;;10.82;81.33;98241.72;5076424;27;45318;-68
2022/11/17 06:00:18;;;;;;;;;1.00;0.00;;;;;10.78;81.58;98235.84;5077031;27;45560;-69
2022/11/17 06:02:53;;;;;;;;;0.00;0.00;;;;;10.78;81.45;98245.56;5075943;27;46198;-68
2022/11/17 06:05:18;;;;;;;;;0.00;0.00;;;;;10.76;80.97;98252.72;5076191;28;45242;-70
2022/11/17 06:07:44;;;;;;;;;2.00;2.00;;;;;10.75;81.59;98243.16;5076365;27;45492;-70
2022/11/17 06:10:09;;;;;;;;;0.00;0.00;;;;;10.71;81.11;98247.81;5076760;27;45591;-69
2022/11/17 06:12:35;;;;;;;;;1.25;1.25;;;;;10.80;80.88;98254.97;5076075;27;46296;-70
2022/11/17 06:15:00;;;;;;;;;1.00;1.00;;;;;10.81;80.30;98261.91;5076330;27;45260;-70
2022/11/17 06:17:37;;;;;;;;;0.00;0.00;;;;;10.84;79.94;98258.22;5076462;27;45223;-70
2022/11/17 06:20:29;;;;;;;;;3.00;3.00;;;;;10.80;79.94;98257.59;5076593;27;45354;-69
2022/11/17 06:22:56;;;;;;;;;0.00;0.00;;;;;10.87;79.42;98255.34;5072660;28;48203;-68
2022/11/17 06:25:22;;;;;;;;;2.00;2.00;;;;;10.87;79.57;98265.03;5075175;28;45308;-69
2022/11/17 06:27:49;;;;;;;;;0.50;0.00;;;;;10.93;78.60;98257.50;5075660;27;45380;-69
2022/11/17 06:30:15;;;;;;;;;0.25;0.25;;;;;10.95;78.21;98255.56;5075857;27;45319;-69
2022/11/17 06:32:42;;;;;;;;;1.00;1.00;;;;;10.95;77.86;98257.34;5075204;27;46654;-70
2022/11/17 06:35:10;;;;;;;;;1.00;0.00;;;;;10.98;76.98;98251.84;5076080;27;45470;-70
2022/11/17 06:37:35;;;;;;;;;0.00;0.00;;;;;11.01;76.62;98251.59;5075500;27;45522;-69
2022/11/17 06:40:01;;;;;;;;;0.75;0.75;;;;;11.00;76.57;98257.00;5075702;27;45534;-69
2022/11/17 06:45:24;;;;;;;;;0.00;0.00;;;;;11.02;76.34;98268.25;5052123;27;45313;-69
2022/11/17 06:47:52;;;;;;;;;0.25;0.25;;;;;11.03;76.50;98264.66;5075648;27;45416;-69
2022/11/17 06:50:18;;;;;;;;;0.00;0.00;;;;;11.04;76.26;98274.22;5075744;27;45247;-70
2022/11/17 06:52:43;;;;;;;;;0.00;0.00;;;;;11.01;76.13;98267.38;5075296;27;46728;-69
2022/11/17 06:55:08;;;;;;;;;0.50;0.50;;;;;11.00;75.97;98257.00;5075699;27;45363;-69
2022/11/17 06:57:34;;;;;;;;;6.75;6.75;;;;;11.00;76.66;98264.91;5076421;27;45288;-70
2022/11/17 06:59:59;;;;;;;;;0.25;0.25;;;;;11.00;76.94;98275.41;5075543;27;45473;-72
2022/11/17 07:02:24;;;;;;;;;2.25;2.25;;;;;10.95;77.01;98263.47;5074824;27;45335;-70
2022/11/17 07:04:49;;;;;;;;;1.00;1.00;;;;;11.00;77.15;98283.31;5074896;27;45362;-71
2022/11/17 07:07:15;;;;;;;;;1.00;1.00;;;;;11.01;77.06;98285.81;5075013;27;45188;-69
2022/11/17 07:09:40;;;;;;;;;1.00;1.00;;;;;11.00;77.37;98281.50;5075201;27;45532;-69
2022/11/17 07:12:05;;;;;;;;;1.25;1.25;;;;;10.98;77.23;98282.59;5074896;28;50271;-71
2022/11/17 07:14:31;;;;;;;;;1.50;1.50;;;;;11.02;76.96;98287.47;5074994;27;45279;-70
2022/11/17 07:16:57;;;;;;;;;1.00;1.00;;;;;11.02;77.14;98289.28;5073705;28;45549;-69
2022/11/17 07:19:22;;;;;;;;;2.00;2.00;;;;;11.03;77.49;98302.31;5074923;27;45307;-70
2022/11/17 07:21:48;;;;;;;;;1.00;1.00;;;;;11.00;77.21;98293.84;5074547;27;49990;-70
2022/11/17 07:24:13;;;;;;;;;1.00;1.00;;;;;11.02;77.12;98289.28;5074632;27;45406;-70
2022/11/17 07:26:38;;;;;;;;;1.50;1.50;;;;;11.01;77.53;98298.97;5075081;27;45385;-70
2022/11/17 07:29:04;;;;;;;;;2.25;1.25;;;;;10.96;77.50;98291.44;5075098;27;45580;-70
2022/11/17 07:31:29;;;;;;;;;1.00;1.00;;;;;10.99;77.69;98298.25;5074532;27;46134;-69
2022/11/17 07:33:55;;;;;;;;;1.00;1.00;;;;;11.04;77.51;98301.34;5074530;27;45336;-69
2022/11/17 07:36:20;;;;;;;;;0.00;0.00;;;;;11.06;76.82;98301.25;5074847;27;45308;-69
2022/11/17 07:38:46;;;;;;;;;0.50;0.50;;;;;11.11;76.86;98306.97;5074574;27;45497;-70
2022/11/17 07:41:13;;;;;;;;;1.00;1.00;;;;;11.16;76.98;98309.25;5074418;27;45291;-70
2022/11/17 07:43:39;;;;;;;;;2.00;2.00;;;;;11.17;76.49;98303.03;5074759;28;45247;-70
2022/11/17 07:46:06;;;;;;;;;2.50;2.50;;;;;11.21;75.95;98307.91;5072836;28;45424;-69
2022/11/17 07:48:32;;;;;;;;;0.25;0.25;;;;;11.28;76.37;98315.31;5074860;27;45443;-70
2022/11/17 07:50:58;;;;;;;;;1.00;1.00;;;;;11.30;76.06;98316.03;5074468;27;45580;-70
2022/11/17 07:53:24;;;;;;;;;3.00;2.00;;;;;11.36;75.83;98329.56;5074838;27;45448;-70
2022/11/17 07:55:49;;;;;;;;;1.75;1.75;;;;;11.40;75.83;98324.88;5074595;27;45456;-70
2022/11/17 07:58:14;;;;;;;;;1.50;1.50;;;;;11.45;76.00;98335.88;5074307;27;45358;-70
2022/11/17 08:00:40;;;;;;;;;2.25;2.25;;;;;11.50;75.72;98336.34;5074093;27;45306;-68
2022/11/17 08:03:05;;;;;;;;;1.75;1.75;;;;;11.54;75.66;98350.09;5073882;27;45393;-69
2022/11/17 08:05:34;;;;;;;;;1.25;1.25;;;;;11.55;75.67;98343.88;5074309;27;45461;-68
2022/11/17 08:07:59;;;;;;;;;2.75;2.75;;;;;11.55;76.32;98341.25;5074516;27;45473;-69
2022/11/17 08:10:26;;;;;;;;;1.75;1.75;;;;;11.54;76.13;98331.69;5061197;27;46130;-69
2022/11/17 08:12:53;;;;;;;;;2.00;2.00;;;;;11.57;76.64;98347.22;5062173;28;45455;-68
2022/11/17 08:15:18;;;;;;;;;2.00;2.00;;;;;11.58;76.83;98351.53;5069193;28;45428;-68
2022/11/17 08:17:43;;;;;;;;;5.25;3.75;;;;;11.60;76.86;98360.16;5059427;27;45400;-68
2022/11/17 08:20:11;;;;;;;;;2.00;2.00;;;;;11.58;77.62;98346.28;5072499;27;45527;-69
2022/11/17 08:22:37;;;;;;;;;3.00;3.00;;;;;11.61;77.79;98359.19;5063841;28;45634;-69
2022/11/17 08:25:02;;;;;;;;;1.00;1.00;;;;;11.53;78.00;98341.34;5053890;28;45242;-71
2022/11/17 08:27:28;;;;;;;;;0.50;0.50;;;;;11.60;77.75;98361.94;5055498;28;45354;-70
2022/11/17 08:29:53;;;;;;;;;2.00;2.00;;;;;11.58;78.08;98363.84;5071552;28;46508;-71
2022/11/17 08:32:18;;;;;;;;;2.00;2.00;;;;;11.60;78.51;98354.03;5072245;27;45272;-71
2022/11/17 08:34:44;;;;;;;;;2.25;2.25;;;;;11.59;78.04;98350.56;5073781;27;45261;-73
2022/11/17 08:37:09;;;;;;;;;1.00;1.00;;;;;11.65;78.35;98362.41;5074040;28;45530;-70
2022/11/17 08:39:34;;;;;;;;;2.00;2.00;;;;;11.69;77.76;98350.69;5073458;27;45371;-68
2022/11/17 08:41:59;;;;;;;;;2.00;2.00;;;;;11.74;77.59;98352.94;5068701;27;45315;-68
2022/11/17 08:44:25;;;;;;;;;2.75;2.75;;;;;11.78;77.52;98355.22;5068012;27;45426;-76
2022/11/17 08:46:50;;;;;;;;;1.75;1.75;;;;;11.85;77.18;98368.69;5057688;27;45333;-73
2022/11/17 08:49:15;;;;;;;;;1.00;1.00;;;;;11.88;76.41;98357.09;5056852;28;45554;-76
2022/11/17 08:51:41;;;;;;;;;2.00;2.00;;;;;11.90;76.98;98363.88;5057394;28;45220;-75
2022/11/17 08:54:06;;;;;;;;;2.25;1.00;;;;;11.89;76.24;98358.75;5056772;28;45216;-76
2022/11/17 08:56:31;;;;;;;;;1.00;1.00;;;;;11.81;76.12;98346.19;5056920;28;45514;-76
2022/11/17 08:58:57;;;;;;;;;3.00;3.00;;;;;11.99;75.88;98367.59;5056266;28;45615;-75
2022/11/17 09:01:22;;;;;;;;;4.00;4.00;;;;;12.01;75.96;98360.44;5056653;28;45337;-76
2022/11/17 09:03:48;;;;;;;;;2.00;2.00;;;;;12.03;75.73;98353.22;5056726;28;45449;-75
2022/11/17 09:06:15;;;;;;;;;0.00;0.00;;;;;12.10;75.76;98350.91;5057155;28;45639;-74
2022/11/17 09:08:40;;;;;;;;;4.00;4.00;;;;;12.19;75.42;98355.41;5056807;28;46742;-74
2022/11/17 09:11:07;;;;;;;;;2.75;2.75;;;;;12.22;74.97;98365.75;5056513;28;45450;-75
2022/11/17 09:13:33;;;;;;;;;3.50;3.00;;;;;12.25;75.26;98362.00;5056542;28;45265;-75
2022/11/17 09:16:04;;;;;;;;;3.00;3.00;;;;;12.32;75.02;98378.16;5056709;28;45510;-75
2022/11/17 09:18:30;;;;;;;;;3.25;3.25;;;;;12.37;74.69;98376.78;5055835;28;46853;-75
2022/11/17 09:21:03;;;;;;;;;4.75;4.75;;;;;12.35;74.92;98376.09;5056206;28;45392;-75
2022/11/17 09:23:30;;;;;;;;;4.50;4.50;;;;;12.47;74.34;98384.78;5054941;28;45389;-74
2022/11/17 09:25:56;;;;;;;;;3.00;3.00;;;;;12.46;74.61;98369.94;5056658;28;45584;-75
2022/11/17 09:28:24;;;;;;;;;5.75;5.75;;;;;12.50;74.88;98371.34;5054560;28;47490;-75
2022/11/17 09:30:50;;;;;;;;;18.75;16.75;;;;;12.49;74.83;98368.81;5056208;28;45259;-74
2022/11/17 09:33:18;;;;;;;;;3.00;3.00;;;;;12.49;74.89;98364.41;5056402;28;45406;-74
2022/11/17 09:35:43;;;;;;;;;4.50;4.50;;;;;12.45;74.70;98378.81;5057662;28;45380;-76
2022/11/17 09:38:08;;;;;;;;;4.50;4.50;;;;;12.35;75.05;98373.44;5057444;28;45399;-74
2022/11/17 09:40:35;;;;;;;;;2.50;2.50;;;;;12.39;74.89;98381.97;5057016;28;45312;-74
2022/11/17 09:43:00;;;;;;;;;2.75;2.75;;;;;12.34;74.97;98373.59;5058130;28;45443;-75
2022/11/17 09:45:37;;;;;;;;;3.25;3.25;;;;;12.28;74.99;98377.56;5054811;28;45344;-74
2022/11/17 09:48:17;;;;;;;;;2.50;2.50;;;;;12.25;74.82;98394.47;5054223;28;46212;-75
2022/11/17 09:50:45;;;;;;;;;3.00;2.00;;;;;12.18;76.29;98392.47;5056143;28;45361;-73
2022/11/17 09:53:19;;;;;;;;;4.50;4.50;;;;;12.10;76.60;98395.72;5071148;28;45354;-74
2022/11/17 09:55:48;;;;;;;;;2.75;2.75;;;;;12.01;76.82;98401.72;5071584;28;45358;-75
2022/11/17 09:58:33;;;;;;;;;2.25;2.25;;;;;11.94;77.44;98409.28;5054321;28;46203;-74
2022/11/17 10:00:59;;;;;;;;;2.00;2.00;;;;;11.92;77.87;98417.28;5055421;28;45418;-75
2022/11/17 10:03:28;;;;;;;;;2.00;2.00;;;;;11.92;78.72;98404.13;5055380;28;45327;-76
2022/11/17 10:05:54;;;;;;;;;3.00;3.00;;;;;11.97;78.57;98417.75;5055629;28;45636;-74
2022/11/17 10:08:38;;;;;;;;;3.75;3.75;;;;;12.03;78.55;98405.06;5053974;28;47526;-75
2022/11/17 10:11:31;;;;;;;;;4.50;4.00;;;;;12.19;78.76;98418.69;5055827;28;45489;-74
2022/11/17 10:14:01;;;;;;;;;1.00;1.00;;;;;12.31;78.39;98408.94;5054220;28;45466;-74
2022/11/17 10:16:27;;;;;;;;;3.25;3.25;;;;;12.42;78.07;98413.34;5054474;28;45510;-74
2022/11/17 10:18:52;;;;;;;;;4.75;4.75;;;;;12.52;78.14;98416.03;5055330;28;45274;-74
2022/11/17 10:21:17;;;;;;;;;5.00;5.00;;;;;12.57;77.10;98413.84;5055385;28;56922;-74
2022/11/17 10:23:48;;;;;;;;;2.75;2.75;;;;;12.68;76.90;98426.97;5055374;28;45243;-73
2022/11/17 10:26:14;;;;;;;;;4.00;3.00;;;;;12.73;76.61;98416.06;5055999;28;45295;-74
2022/11/17 10:28:40;;;;;;;;;4.25;4.00;;;;;12.83;75.83;98405.56;5055790;28;45343;-74
2022/11/17 10:31:17;;;;;;;;;3.00;2.75;;;;;12.91;75.62;98411.03;5055016;28;45250;-75
2022/11/17 10:33:49;;;;;;;;;4.25;3.00;;;;;13.01;75.27;98403.16;5087680;27;45493;-74
2022/11/17 10:36:24;;;;;;;;;2.00;1.75;;;;;13.09;74.76;98402.50;5055725;28;45498;-73
2022/11/17 10:38:53;;;;;;;;;4.25;3.75;;;;;12.93;74.35;98353.69;5054944;28;46626;-75
2022/11/17 10:41:22;;;;;;;;;3.50;2.50;;;;;13.18;74.04;98391.16;5055370;28;45316;-74
2022/11/17 10:44:03;;;;;;;;;2.00;2.00;;;;;13.25;73.43;98397.59;5055660;28;45345;-74
2022/11/17 10:46:30;;;;;;;;;3.50;3.50;;;;;13.26;73.01;98382.59;5055621;28;45232;-76
2022/11/17 10:48:59;;;;;;;;;4.75;4.75;;;;;13.30;72.24;98390.09;5054850;28;45329;-75
2022/11/17 10:51:31;;;;;;;;;6.25;6.25;;;;;13.32;72.51;98386.50;5053687;28;45398;-75
2022/11/17 10:54:02;;;;;;;;;2.00;2.00;;;;;13.34;72.30;98392.47;5054888;28;45205;-75
2022/11/17 10:56:30;;;;;;;;;0.00;0.00;;;;;13.36;71.77;98380.81;5054087;28;45278;-74
2022/11/17 10:59:15;;;;;;;;;4.75;3.25;;;;;13.44;71.43;98394.22;5054637;28;45514;-74
2022/11/17 11:01:43;;;;;;;;;3.00;3.00;;;;;13.49;71.40;98391.16;5054804;28;45369;-74
2022/11/17 11:04:35;;;;;;;;;26.50;26.25;;;;;13.52;71.29;98390.88;5055159;28;45395;-73
2022/11/17 11:07:19;;;;;;;;;4.50;3.25;;;;;13.50;70.73;98376.16;5055774;28;45390;-73
2022/11/17 11:09:58;;;;;;;;;3.75;3.75;;;;;13.55;70.83;98380.06;5053674;28;47083;-75
2022/11/17 11:12:47;;;;;;;;;3.75;3.75;;;;;13.51;70.52;98378.66;5054758;28;45323;-73
2022/11/17 11:15:19;;;;;;;;;4.00;4.00;;;;;13.51;70.47;98373.38;5054795;28;45223;-75
2022/11/17 11:17:44;;;;;;;;;5.00;5.00;;;;;13.53;70.32;98368.78;5055069;28;45339;-74
2022/11/17 11:20:15;;;;;;;;;5.50;5.50;;;;;13.52;69.80;98374.22;5054299;28;46023;-74
2022/11/17 11:23:04;;;;;;;;;7.00;7.00;;;;;13.48;69.17;98367.53;5059756;28;45770;-75
2022/11/17 11:25:35;;;;;;;;;3.00;3.00;;;;;13.39;69.80;98369.13;5059943;28;45349;-73
2022/11/17 11:28:39;;;;;;;;;2.00;2.00;;;;;13.33;69.68;98377.59;5061508;28;45348;-74
2022/11/17 11:31:19;;;;;;;;;2.75;2.50;;;;;13.10;69.91;98361.94;5054177;28;45480;-75
2022/11/17 11:33:52;;;;;;;;;4.25;4.25;;;;;13.08;70.01;98366.53;5054257;28;45457;-77
2022/11/17 11:36:30;;;;;;;;;4.50;4.50;;;;;13.10;70.13;98377.78;5054703;28;45336;-75
2022/11/17 11:39:02;;;;;;;;;7.00;6.00;;;;;13.02;70.21;98377.63;5054352;28;45366;-76
2022/11/17 11:41:49;;;;;;;;;12.00;11.75;;;;;12.99;70.26;98384.81;5053570;28;45672;-73
2022/11/17 11:44:43;;;;;;;;;6.75;6.75;;;;;12.95;69.87;98379.94;5053631;28;45448;-74
2022/11/17 11:47:40;;;;;;;;;11.25;11.25;;;;;12.91;69.66;98392.56;5052168;28;45382;-76
2022/11/17 11:50:09;;;;;;;;;4.50;4.50;;;;;12.93;69.74;98388.00;5040997;28;45517;-75
2022/11/17 11:52:39;;;;;;;;;2.25;2.25;;;;;13.03;69.42;98381.94;5053687;28;46535;-74
2022/11/17 11:55:20;;;;;;;;;5.00;5.00;;;;;13.15;69.12;98384.31;5052521;28;45508;-76
2022/11/17 11:58:04;;;;;;;;;8.00;8.00;;;;;13.24;68.81;98374.78;5053994;28;45348;-75
2022/11/17 12:00:30;;;;;;;;;4.00;4.00;;;;;13.24;68.36;98366.88;5068380;28;45354;-76
2022/11/17 12:03:17;;;;;;;;;5.50;4.50;;;;;13.33;67.94;98378.44;5053670;28;45444;-75
2022/11/17 12:09:17;;;;;;;;;4.50;4.50;;;;;13.36;67.33;98386.09;5054014;28;45428;-74
2022/11/17 12:12:01;;;;;;;;;2.75;2.75;;;;;13.36;67.30;98382.59;5053538;28;45352;-74
2022/11/17 12:14:32;;;;;;;;;4.50;4.50;;;;;13.34;67.12;98374.00;5054038;28;46307;-75
2022/11/17 12:17:24;;;;;;;;;4.50;4.50;;;;;13.36;67.01;98378.19;5053952;28;45264;-75
2022/11/17 12:19:58;;;;;;;;;2.00;2.00;;;;;13.38;66.75;98375.38;5052616;28;45426;-75
2022/11/17 12:22:32;;;;;;;;;6.00;6.00;;;;;13.42;66.89;98385.59;5054836;28;45605;-75
2022/11/17 12:25:17;;;;;;;;;5.00;5.00;;;;;13.51;66.60;98391.88;5072753;28;48360;-76